Arbyrd, MO

9:24 PM CDT on October 01, 2014 (GMT -0500)
KC0UFP WX | Change Station
CLOSE
Current Station
Personal Weather Station
Location: Kennett, MO
Elevation: 262 ft
Nearby Weather Stations

Elev 262 ft 36.21 °N, 90.07 °W | Updated 9 seconds ago

Partly Cloudy
Partly Cloudy
72.9 °F
Feels Like 72 °F
N
0.0
Wind Variable Wind from SE

Today
High -- | Low -- °F
--% Chance of Precip.
Yesterday
High -- | Low -- °F
Precip. -- in
6:55 AM 6:44 PM
First Quarter, 53% visible
Pressure 29.89 in
Visibility 10.0 miles
Clouds Mostly Cloudy 7500 ft
Heat Index 72 °F
Dew Point 67 °F
Humidity 83%
Rainfall 0.00 in
Snow Depth Not available.
UV 0 out of 12
Pollen 5.70 out of 12
Air Quality Not available.
Flu Activity Not available.
METAR KHKA 020153Z AUTO 14006KT 10SM BKN075 23/20 A2990 RMK AO2 SLP122 T02330200

More Conditions Fewer Conditions

Pressure 29.89 in
Visibility 10.0 miles
Clouds Mostly Cloudy 7500 ft
Heat Index 72 °F
Dew Point 67 °F
Humidity 83%
Rainfall 0.00 in
Snow Depth Not available.
UV 0 out of 12
Pollen 5.70 out of 12
Air Quality Not available.
Flu Activity Not available.
METAR KHKA 020153Z AUTO 14006KT 10SM BKN075 23/20 A2990 RMK AO2 SLP122 T02330200

More Conditions Fewer Conditions

10-Day Weather Forecast

Almanac

Astronomy

Oct. 01, 2014 Rise Set
Actual Time 6:55 AM CDT 6:44 PM CDT
Civil Twilight 6:30 AM CDT 7:09 PM CDT
Nautical Twilight 6:00 AM CDT 7:39 PM CDT
Astronomical Twilight 5:30 AM CDT 8:09 PM CDT
Moon 1:49 PM CDT (10/1) No Moon Set
Length of Visible Light 12h 39m
Length of Day
11h 48m
Tomorrow will be 2m 16s shorter.
First Quarter, 53% of the Moon is Illuminated
Today
First Quarter
Oct 8
Full
Oct 15
Last Quarter
Oct 23
New
Oct 30
First Quarter

Today's Extremes

State Highs State Lows

Community

WunderPhotos

Upload Photos

1,758,142 photos uploaded!

WunderBlogs® & News

Nearby

Snow Depth

Station Depth Elevation
No new snow has been reported.

Earthquake Activity

City Distance Mag. Time & Date
No recent earthquake activity has been reported nearby.
Minimum magnitude displayed is 2.5.

Coastal Water Temperatures

Place Temperature
No Stations Reporting

Nearby Weather Stations